Time;durP1;ratioP1;P1;durP2;ratioP2;P2;SDS_P1;SDS_P2;PMS_P1;PMS_P2;Temp;Humidity;BMP_temperature;BMP_pressure;BME280_temperature;BME280_humidity;BME280_pressure;Samples;Min_cycle;Max_cycle;Signal;HPM_P1;HPM_P2
2021/05/16 00:00:27;;;;;;;12.13;10.95;;;10.60;94.40;;;;;;5127791;27;20088;-61
2021/05/16 00:02:54;;;;;;;12.60;11.32;;;10.50;94.70;;;;;;5130778;27;20664;-59
2021/05/16 00:05:23;;;;;;;13.00;11.68;;;10.50;94.70;;;;;;5127809;27;20039;-58
2021/05/16 00:07:51;;;;;;;12.48;11.38;;;10.50;94.50;;;;;;5129182;27;20073;-59
2021/05/16 00:10:21;;;;;;;13.85;12.55;;;10.50;94.50;;;;;;5129437;27;20103;-61
2021/05/16 00:12:48;;;;;;;13.18;11.98;;;10.50;94.70;;;;;;5129895;27;20517;-59
2021/05/16 00:15:17;;;;;;;13.73;12.43;;;10.60;94.70;;;;;;5129615;27;20043;-60
2021/05/16 00:17:44;;;;;;;14.23;12.93;;;10.50;94.80;;;;;;5134607;27;20063;-59
2021/05/16 00:20:17;;;;;;;15.07;13.68;;;10.50;94.80;;;;;;5108413;27;20050;-60
2021/05/16 00:22:43;;;;;;;15.20;13.70;;;10.50;94.90;;;;;;5129326;27;20833;-58
2021/05/16 00:25:13;;;;;;;16.02;14.63;;;10.50;95.10;;;;;;5129012;27;20546;-58
2021/05/16 00:27:40;;;;;;;15.57;14.13;;;10.40;95.20;;;;;;5130521;27;20047;-58
2021/05/16 00:30:08;;;;;;;16.60;15.05;;;10.40;95.30;;;;;;5128862;27;20142;-58
2021/05/16 00:32:35;;;;;;;17.20;15.45;;;10.40;95.50;;;;;;5130714;27;20166;-59
2021/05/16 00:35:01;;;;;;;18.48;15.55;;;10.40;95.40;;;;;;5130471;27;20047;-61
2021/05/16 00:37:27;;;;;;;17.48;15.77;;;10.40;95.50;;;;;;5114221;27;20061;-59
2021/05/16 00:39:55;;;;;;;17.67;15.98;;;10.40;95.70;;;;;;5119293;27;20043;-57
2021/05/16 00:42:21;;;;;;;19.17;17.38;;;10.40;95.70;;;;;;5128329;27;20043;-57
2021/05/16 00:45:09;;;;;;;18.27;16.58;;;10.40;95.70;;;;;;5129808;27;20103;-59
2021/05/16 00:47:36;;;;;;;19.17;17.33;;;10.40;95.80;;;;;;5126874;27;20515;-58
2021/05/16 00:50:07;;;;;;;19.52;17.70;;;10.40;95.90;;;;;;5125507;27;20377;-58
2021/05/16 00:52:37;;;;;;;18.00;16.40;;;10.40;95.70;;;;;;5127161;27;20103;-59
2021/05/16 00:55:05;;;;;;;17.95;16.25;;;10.40;95.80;;;;;;5129054;27;20157;-55
2021/05/16 00:57:31;;;;;;;18.67;16.98;;;10.30;96.00;;;;;;5117496;27;20589;-60
2021/05/16 00:59:58;;;;;;;19.92;18.02;;;10.30;96.30;;;;;;5129216;27;20058;-61
2021/05/16 01:02:24;;;;;;;20.45;18.55;;;10.20;96.30;;;;;;5129073;27;20551;-57
2021/05/16 01:04:51;;;;;;;19.20;17.48;;;10.20;96.10;;;;;;5108392;27;20043;-58
2021/05/16 01:07:18;;;;;;;20.73;18.73;;;10.10;96.10;;;;;;5121854;27;20170;-59
2021/05/16 01:09:44;;;;;;;19.83;17.92;;;10.00;96.00;;;;;;5122822;27;20054;-59
2021/05/16 01:12:12;;;;;;;19.05;17.35;;;10.00;96.20;;;;;;5128311;27;20058;-58
2021/05/16 01:14:46;;;;;;;20.73;18.70;;;9.90;96.20;;;;;;5101116;27;20048;-58
2021/05/16 01:17:12;;;;;;;23.13;20.80;;;9.90;96.40;;;;;;5127134;27;20134;-57
2021/05/16 01:19:41;;;;;;;22.38;20.27;;;10.00;96.50;;;;;;5127774;27;20066;-61
2021/05/16 01:22:08;;;;;;;24.00;21.80;;;10.00;96.60;;;;;;5122740;27;20118;-57
2021/05/16 01:24:37;;;;;;;23.60;21.40;;;10.10;96.50;;;;;;5117794;27;20495;-58
2021/05/16 01:27:11;;;;;;;21.58;19.63;;;10.10;96.50;;;;;;5128316;27;20075;-58
2021/05/16 01:29:39;;;;;;;23.40;21.08;;;10.10;96.80;;;;;;5131202;27;20043;-60
2021/05/16 01:32:10;;;;;;;24.00;21.52;;;10.20;96.70;;;;;;5133313;27;20495;-56
2021/05/16 01:34:41;;;;;;;24.75;22.50;;;10.20;97.00;;;;;;5128475;27;20043;-60
2021/05/16 01:37:12;;;;;;;22.97;20.77;;;10.20;97.10;;;;;;5101826;27;20056;-61
2021/05/16 01:39:41;;;;;;;24.73;22.42;;;10.30;96.90;;;;;;5121314;27;20043;-57
2021/05/16 01:42:09;;;;;;;24.27;21.85;;;10.30;96.90;;;;;;5108793;27;20403;-60
2021/05/16 01:44:36;;;;;;;24.60;22.20;;;10.30;96.90;;;;;;5112701;28;20118;-59
2021/05/16 01:47:02;;;;;;;26.17;23.65;;;10.30;97.10;;;;;;5109832;28;20484;-58
2021/05/16 01:49:53;;;;;;;24.80;22.40;;;10.40;97.30;;;;;;5108001;28;20128;-59
2021/05/16 01:52:25;;;;;;;25.75;23.35;;;10.40;97.80;;;;;;5105654;28;20090;-59
2021/05/16 01:54:52;;;;;;;25.55;23.20;;;10.40;98.00;;;;;;5105437;28;20047;-58
2021/05/16 01:57:20;;;;;;;24.88;22.48;;;10.40;97.90;;;;;;5110290;27;20039;-54
2021/05/16 01:59:47;;;;;;;26.17;23.60;;;10.40;97.50;;;;;;5107277;28;20051;-60
2021/05/16 02:02:15;;;;;;;25.77;23.13;;;10.50;97.50;;;;;;5101932;28;20475;-57
2021/05/16 02:04:43;;;;;;;25.60;23.23;;;10.50;97.80;;;;;;5114499;28;20039;-60
2021/05/16 02:07:11;;;;;;;26.95;24.45;;;10.50;97.40;;;;;;5105130;28;20076;-57
2021/05/16 02:09:41;;;;;;;27.17;24.50;;;10.60;97.40;;;;;;5103542;28;20121;-59
2021/05/16 02:12:09;;;;;;;25.35;23.08;;;10.60;97.80;;;;;;5105327;28;20159;-58
2021/05/16 02:14:35;;;;;;;25.80;23.30;;;10.60;97.70;;;;;;5106536;28;20047;-58
2021/05/16 02:17:05;;;;;;;26.17;23.67;;;10.60;97.60;;;;;;5104418;28;20043;-59
2021/05/16 02:19:32;;;;;;;26.38;23.88;;;10.60;97.90;;;;;;5107044;28;20051;-58
2021/05/16 02:21:59;;;;;;;28.38;25.67;;;10.60;97.70;;;;;;5105428;28;20061;-56
2021/05/16 02:24:28;;;;;;;25.75;23.27;;;10.60;97.90;;;;;;5103835;28;20588;-59
2021/05/16 02:27:03;;;;;;;27.80;25.10;;;10.60;98.10;;;;;;5105067;28;20543;-58
2021/05/16 02:29:41;;;;;;;26.20;23.88;;;10.60;97.90;;;;;;5111836;27;20170;-59
2021/05/16 02:32:08;;;;;;;27.00;24.48;;;10.60;98.10;;;;;;5098151;28;20055;-59
2021/05/16 02:34:35;;;;;;;28.10;25.40;;;10.60;98.20;;;;;;5107087;28;20051;-57
2021/05/16 02:37:02;;;;;;;28.15;25.38;;;10.60;98.40;;;;;;5105318;28;20044;-59
2021/05/16 02:39:32;;;;;;;26.50;23.88;;;10.50;98.30;;;;;;5105041;28;20036;-61
2021/05/16 02:41:58;;;;;;;28.02;25.05;;;10.50;98.00;;;;;;5106013;28;20491;-60
2021/05/16 02:44:25;;;;;;;27.48;24.83;;;10.50;97.90;;;;;;5103122;28;20054;-59
2021/05/16 02:46:51;;;;;;;27.90;25.10;;;10.50;98.00;;;;;;5101696;28;20679;-60
2021/05/16 02:49:20;;;;;;;27.75;24.98;;;10.50;98.00;;;;;;5105947;28;20055;-58
2021/05/16 02:51:46;;;;;;;25.73;23.05;;;10.50;97.70;;;;;;5104260;28;20044;-59
2021/05/16 02:54:13;;;;;;;26.27;23.55;;;10.50;97.90;;;;;;5107019;28;20376;-58
2021/05/16 02:56:42;;;;;;;27.42;23.95;;;10.50;97.80;;;;;;5101378;28;20100;-58
2021/05/16 02:59:09;;;;;;;26.45;23.65;;;10.50;98.00;;;;;;5104255;28;20055;-56
2021/05/16 03:01:35;;;;;;;29.15;24.88;;;10.50;98.00;;;;;;5109394;28;20126;-60
2021/05/16 03:04:04;;;;;;;27.77;24.80;;;10.50;98.00;;;;;;5104744;28;20095;-55
2021/05/16 03:06:30;;;;;;;34.80;25.35;;;10.50;98.00;;;;;;5120262;28;20557;-58
2021/05/16 03:08:56;;;;;;;27.92;24.77;;;10.40;98.10;;;;;;5094092;28;20039;-60
2021/05/16 03:11:28;;;;;;;29.20;25.37;;;10.40;98.10;;;;;;5100788;28;20484;-60
2021/05/16 03:13:54;;;;;;;29.27;25.13;;;10.40;98.20;;;;;;5085641;28;20323;-59
2021/05/16 03:16:24;;;;;;;30.65;26.38;;;10.30;98.30;;;;;;5104179;28;20048;-58
2021/05/16 03:18:53;;;;;;;31.85;27.05;;;10.30;98.30;;;;;;5101345;28;20081;-61
2021/05/16 03:21:20;;;;;;;32.10;27.27;;;10.30;98.20;;;;;;5102225;28;20052;-57
2021/05/16 03:23:48;;;;;;;33.03;27.92;;;10.20;98.50;;;;;;5103264;28;20545;-59
2021/05/16 03:26:15;;;;;;;32.95;26.15;;;10.20;98.40;;;;;;5110393;28;20483;-58
2021/05/16 03:28:41;;;;;;;29.52;26.38;;;10.20;98.30;;;;;;5106393;28;20415;-57
2021/05/16 03:31:07;;;;;;;37.33;29.10;;;10.10;98.40;;;;;;5104618;28;20047;-59
2021/05/16 03:33:33;;;;;;;34.03;27.00;;;10.10;98.50;;;;;;5105176;28;20055;-60
2021/05/16 03:36:00;;;;;;;34.78;26.80;;;10.00;98.70;;;;;;5109460;28;20507;-58
2021/05/16 03:38:26;;;;;;;32.55;25.77;;;10.00;98.50;;;;;;5125416;28;20136;-58
2021/05/16 03:40:52;;;;;;;33.35;27.13;;;9.90;98.40;;;;;;5123897;28;20528;-58
2021/05/16 03:43:20;;;;;;;36.30;25.98;;;9.80;98.80;;;;;;5126949;28;20235;-58
2021/05/16 03:45:47;;;;;;;36.28;26.73;;;9.90;98.50;;;;;;5125893;28;20486;-60
2021/05/16 03:48:13;;;;;;;35.33;27.55;;;9.80;98.40;;;;;;5127683;27;20074;-60
2021/05/16 03:50:39;;;;;;;33.40;28.00;;;9.80;98.70;;;;;;5135034;27;20035;-59
2021/05/16 03:53:06;;;;;;;32.00;26.80;;;9.80;98.60;;;;;;5128578;27;20047;-58
2021/05/16 03:55:32;;;;;;;36.60;28.52;;;9.90;98.80;;;;;;5129026;27;20047;-59
2021/05/16 03:57:58;;;;;;;33.80;27.85;;;9.90;98.80;;;;;;5130733;27;20150;-58
2021/05/16 04:00:24;;;;;;;35.03;26.98;;;9.90;98.80;;;;;;5115442;27;20074;-56
2021/05/16 04:02:51;;;;;;;35.33;25.70;;;9.90;99.00;;;;;;5127423;27;20166;-58
2021/05/16 04:05:17;;;;;;;35.03;27.80;;;10.00;99.00;;;;;;5130764;27;20035;-59
2021/05/16 04:07:43;;;;;;;31.80;26.55;;;10.00;98.70;;;;;;5130386;27;20049;-59
2021/05/16 04:10:10;;;;;;;32.85;27.25;;;10.00;99.00;;;;;;5127297;27;20494;-56
2021/05/16 04:12:37;;;;;;;30.42;26.42;;;10.10;98.80;;;;;;5130568;27;20394;-59
2021/05/16 04:15:05;;;;;;;34.22;25.08;;;10.10;98.60;;;;;;5135359;27;20070;-57
2021/05/16 04:17:31;;;;;;;36.33;26.52;;;10.10;98.50;;;;;;5102936;27;20134;-58
2021/05/16 04:19:57;;;;;;;35.38;26.40;;;10.10;98.40;;;;;;5124922;27;20070;-60
2021/05/16 04:22:24;;;;;;;33.97;26.50;;;10.10;98.70;;;;;;5129180;27;20058;-60
2021/05/16 04:24:53;;;;;;;33.08;26.30;;;10.10;98.70;;;;;;5128711;27;20495;-58
2021/05/16 04:27:19;;;;;;;36.28;26.63;;;10.10;98.70;;;;;;5129247;27;20047;-58
2021/05/16 04:29:45;;;;;;;32.22;24.70;;;10.20;98.70;;;;;;5130151;27;20439;-57
2021/05/16 04:32:11;;;;;;;31.52;25.13;;;10.20;98.70;;;;;;5131575;27;20043;-60
2021/05/16 04:34:38;;;;;;;34.47;26.45;;;10.20;98.80;;;;;;5125973;27;20384;-57
2021/05/16 04:37:04;;;;;;;30.15;23.63;;;10.30;98.80;;;;;;5129243;27;20529;-58
2021/05/16 04:39:30;;;;;;;33.00;26.13;;;10.30;98.60;;;;;;5127544;27;20039;-58
2021/05/16 04:41:56;;;;;;;31.02;25.95;;;10.30;98.50;;;;;;5136657;27;20441;-60
2021/05/16 04:44:22;;;;;;;34.33;27.00;;;10.40;98.50;;;;;;5125181;27;20043;-58
2021/05/16 04:46:48;;;;;;;34.25;24.77;;;10.30;98.50;;;;;;5127442;27;20690;-56
2021/05/16 04:49:15;;;;;;;34.35;25.85;;;10.40;98.60;;;;;;5120008;27;20047;-57
2021/05/16 04:51:41;;;;;;;33.58;25.33;;;10.40;98.50;;;;;;5128265;27;20047;-59
2021/05/16 04:54:07;;;;;;;33.10;26.77;;;10.50;98.50;;;;;;5128260;27;20490;-60
2021/05/16 04:56:34;;;;;;;33.40;28.02;;;10.60;98.60;;;;;;5130982;27;20145;-60
2021/05/16 04:59:01;;;;;;;35.65;27.75;;;10.60;98.50;;;;;;5118581;27;20059;-57
2021/05/16 05:01:27;;;;;;;38.13;29.17;;;10.70;98.50;;;;;;5128903;27;20077;-59
2021/05/16 05:03:57;;;;;;;33.45;26.40;;;10.80;98.50;;;;;;5129437;27;20059;-60
2021/05/16 05:06:23;;;;;;;34.80;28.27;;;10.80;98.30;;;;;;5129540;27;20748;-58
2021/05/16 05:08:49;;;;;;;39.22;27.63;;;10.90;98.20;;;;;;5128006;27;20501;-58
2021/05/16 05:11:15;;;;;;;38.40;28.20;;;11.00;98.30;;;;;;5128645;27;20184;-59
2021/05/16 05:13:41;;;;;;;35.55;27.77;;;11.10;98.20;;;;;;5128910;27;20051;-61
2021/05/16 05:16:07;;;;;;;36.45;27.85;;;11.10;98.10;;;;;;5128897;27;20093;-58
2021/05/16 05:18:34;;;;;;;43.15;31.63;;;11.20;98.40;;;;;;5128301;27;20103;-62
2021/05/16 05:21:00;;;;;;;37.33;29.88;;;11.20;98.70;;;;;;5128664;27;20860;-63
2021/05/16 05:23:27;;;;;;;36.15;28.27;;;11.20;98.60;;;;;;5128810;27;20075;-63
2021/05/16 05:25:57;;;;;;;36.97;28.40;;;11.20;98.70;;;;;;5125363;27;20051;-61
2021/05/16 05:28:23;;;;;;;33.30;27.88;;;11.20;98.70;;;;;;5127491;27;20585;-62
2021/05/16 05:30:49;;;;;;;42.28;29.90;;;11.20;98.70;;;;;;5128001;27;20150;-60
2021/05/16 05:33:18;;;;;;;38.72;29.95;;;11.20;98.90;;;;;;5129545;27;20487;-60
2021/05/16 05:35:45;;;;;;;38.03;29.30;;;11.20;98.80;;;;;;5131028;27;20078;-62
2021/05/16 05:38:13;;;;;;;35.70;28.00;;;11.30;98.90;;;;;;5125655;27;20319;-60
2021/05/16 05:40:40;;;;;;;38.85;29.10;;;11.30;98.80;;;;;;5128465;27;20043;-60
2021/05/16 05:43:06;;;;;;;34.60;28.40;;;11.40;98.70;;;;;;5127977;27;20043;-61
2021/05/16 05:45:33;;;;;;;40.40;30.60;;;11.40;98.60;;;;;;5128839;27;20460;-58
2021/05/16 05:48:00;;;;;;;39.92;29.67;;;11.50;98.50;;;;;;5125872;27;20103;-60
2021/05/16 05:50:26;;;;;;;36.55;28.23;;;11.60;98.40;;;;;;5125368;27;20530;-58
2021/05/16 05:52:52;;;;;;;35.55;28.27;;;11.60;98.20;;;;;;5122821;27;20353;-58
2021/05/16 05:55:18;;;;;;;42.63;29.83;;;11.70;98.00;;;;;;5126555;27;20047;-54
2021/05/16 05:57:45;;;;;;;39.47;26.27;;;11.70;97.90;;;;;;5127894;27;20047;-54
2021/05/16 06:00:12;;;;;;;34.20;27.80;;;11.80;97.90;;;;;;5125080;27;20079;-56
2021/05/16 06:02:38;;;;;;;37.05;27.27;;;11.80;98.10;;;;;;5118255;27;20505;-57
2021/05/16 06:05:04;;;;;;;34.78;28.73;;;11.80;97.90;;;;;;5133417;27;20121;-57
2021/05/16 06:07:31;;;;;;;37.45;28.83;;;11.80;97.80;;;;;;5128239;27;20116;-57
2021/05/16 06:10:02;;;;;;;33.13;26.35;;;11.80;97.90;;;;;;5127602;27;20054;-58
2021/05/16 06:12:28;;;;;;;37.63;26.63;;;11.70;97.60;;;;;;5126677;27;20507;-54
2021/05/16 06:14:58;;;;;;;36.00;27.75;;;11.70;97.40;;;;;;5131449;27;20063;-57
2021/05/16 06:17:26;;;;;;;32.88;26.33;;;11.60;97.90;;;;;;5127746;27;20070;-58
2021/05/16 06:19:52;;;;;;;36.67;26.63;;;11.70;97.70;;;;;;5126709;27;20106;-56
2021/05/16 06:22:19;;;;;;;37.35;25.88;;;11.70;97.80;;;;;;5125727;27;20051;-57
2021/05/16 06:24:46;;;;;;;33.13;24.90;;;11.60;97.50;;;;;;5109884;27;20055;-59
2021/05/16 06:27:12;;;;;;;37.42;26.48;;;11.60;97.50;;;;;;5120345;27;20447;-57
2021/05/16 06:29:41;;;;;;;38.55;26.15;;;11.50;97.60;;;;;;5125717;27;20035;-60
2021/05/16 06:32:09;;;;;;;45.40;33.38;;;11.50;97.70;;;;;;5117849;27;20039;-58
2021/05/16 06:34:36;;;;;;;75.70;62.13;;;11.50;97.90;;;;;;5119877;27;20046;-60
2021/05/16 06:37:03;;;;;;;38.03;27.55;;;11.60;97.80;;;;;;5121405;27;20054;-57
2021/05/16 06:39:30;;;;;;;41.13;27.33;;;11.50;97.80;;;;;;5123749;27;20095;-56
2021/05/16 06:41:57;;;;;;;44.95;29.08;;;11.60;97.90;;;;;;5120349;27;20050;-58
2021/05/16 06:44:24;;;;;;;39.47;25.85;;;11.60;98.40;;;;;;5105539;27;20050;-60
2021/05/16 06:46:50;;;;;;;35.90;24.00;;;11.50;98.60;;;;;;5122228;27;20054;-59
2021/05/16 06:49:21;;;;;;;38.30;25.98;;;11.60;98.50;;;;;;5119312;27;20039;-61
2021/05/16 06:51:47;;;;;;;32.85;23.63;;;11.60;98.40;;;;;;5120777;27;20042;-63
2021/05/16 06:54:13;;;;;;;69.95;46.97;;;11.70;98.40;;;;;;5124159;27;20043;-59
2021/05/16 06:56:42;;;;;;;60.28;42.08;;;11.80;98.40;;;;;;5114966;27;20046;-61
2021/05/16 06:59:09;;;;;;;36.13;24.00;;;11.80;98.10;;;;;;5118078;28;20072;-56
2021/05/16 07:01:35;;;;;;;31.15;21.20;;;11.90;98.10;;;;;;5125536;28;20061;-56
2021/05/16 07:04:01;;;;;;;28.48;19.40;;;12.00;97.80;;;;;;5127004;27;20155;-57
2021/05/16 07:06:28;;;;;;;36.58;24.05;;;12.10;97.60;;;;;;5122540;28;20051;-58
2021/05/16 07:08:54;;;;;;;45.53;33.13;;;12.20;97.30;;;;;;5119545;28;20070;-58
2021/05/16 07:11:20;;;;;;;36.60;19.75;;;12.20;97.40;;;;;;5117241;27;20119;-58
2021/05/16 07:13:46;;;;;;;29.80;18.95;;;12.10;96.50;;;;;;5128691;27;20051;-59
2021/05/16 07:16:13;;;;;;;33.40;21.00;;;12.00;96.70;;;;;;5125231;27;20692;-57
2021/05/16 07:18:39;;;;;;;33.05;20.15;;;11.90;97.10;;;;;;5126497;27;20099;-54
2021/05/16 07:21:06;;;;;;;31.20;20.15;;;11.90;97.40;;;;;;5125666;28;20054;-48
2021/05/16 07:23:35;;;;;;;53.42;34.45;;;11.90;97.10;;;;;;5109084;27;20050;-48
2021/05/16 07:26:04;;;;;;;43.88;31.05;;;11.80;96.90;;;;;;5124835;27;20071;-47
2021/05/16 07:28:33;;;;;;;37.58;24.92;;;11.80;96.60;;;;;;5126268;27;20039;-51
2021/05/16 07:30:59;;;;;;;32.00;21.10;;;11.80;97.20;;;;;;5130346;27;20047;-48
2021/05/16 07:33:29;;;;;;;35.47;19.08;;;11.80;96.10;;;;;;5124409;27;20040;-48
2021/05/16 07:36:00;;;;;;;32.45;17.45;;;11.80;96.10;;;;;;5122876;27;20491;-51
2021/05/16 07:38:31;;;;;;;32.53;19.23;;;11.90;96.20;;;;;;5124490;27;20052;-51
2021/05/16 07:41:01;;;;;;;28.40;16.85;;;12.00;95.80;;;;;;5128824;27;20051;-50
2021/05/16 07:43:30;;;;;;;20.08;13.50;;;12.20;95.40;;;;;;5127931;27;20501;-49
2021/05/16 07:46:03;;;;;;;23.63;13.48;;;12.40;94.70;;;;;;5131503;27;20582;-48
2021/05/16 07:48:35;;;;;;;25.30;14.25;;;12.60;94.20;;;;;;5122690;27;20039;-46
2021/05/16 07:51:05;;;;;;;22.02;11.32;;;12.70;94.00;;;;;;5111056;28;20043;-48
2021/05/16 07:53:35;;;;;;;20.73;12.10;;;12.60;93.90;;;;;;5125159;27;20062;-48
2021/05/16 07:56:06;;;;;;;27.33;13.55;;;12.80;94.10;;;;;;5131762;27;20151;-49
2021/05/16 07:58:34;;;;;;;39.33;31.15;;;12.70;94.60;;;;;;5122737;27;20040;-50
2021/05/16 08:01:03;;;;;;;33.05;24.02;;;12.90;94.30;;;;;;5108121;27;20193;-51
2021/05/16 08:03:33;;;;;;;23.77;15.23;;;12.90;94.20;;;;;;5116033;27;20130;-54
2021/05/16 08:06:02;;;;;;;19.05;12.63;;;12.90;94.00;;;;;;5117549;27;20501;-51
2021/05/16 08:08:28;;;;;;;26.10;13.75;;;13.00;93.90;;;;;;5099631;28;20800;-50
2021/05/16 08:11:01;;;;;;;21.20;12.13;;;13.10;94.10;;;;;;5118317;27;20039;-51
2021/05/16 08:13:27;;;;;;;28.20;16.88;;;13.10;92.30;;;;;;5112831;27;20261;-53
2021/05/16 08:15:54;;;;;;;20.00;12.63;;;13.20;92.80;;;;;;5114548;27;20054;-53
2021/05/16 08:18:20;;;;;;;28.90;18.45;;;13.30;92.50;;;;;;5111657;27;20039;-51
2021/05/16 08:20:47;;;;;;;27.60;15.45;;;13.30;92.20;;;;;;5113546;27;20047;-54
2021/05/16 08:23:16;;;;;;;23.10;12.95;;;13.40;92.80;;;;;;5128345;27;20054;-53
2021/05/16 08:25:46;;;;;;;24.52;13.77;;;13.70;91.80;;;;;;5127716;27;20062;-55
2021/05/16 08:28:15;;;;;;;22.08;11.82;;;14.00;91.40;;;;;;5120533;27;20035;-56
2021/05/16 08:30:45;;;;;;;20.05;12.43;;;14.20;91.70;;;;;;5133521;27;20139;-56
2021/05/16 08:33:13;;;;;;;20.05;12.23;;;14.50;91.30;;;;;;5115498;27;20051;-55
2021/05/16 08:35:39;;;;;;;14.43;10.35;;;14.50;91.20;;;;;;5130236;27;20050;-54
2021/05/16 08:38:07;;;;;;;17.00;9.85;;;14.30;90.40;;;;;;5121799;27;20097;-58
2021/05/16 08:40:36;;;;;;;16.83;11.35;;;13.90;90.30;;;;;;5115458;27;20359;-56
2021/05/16 08:43:04;;;;;;;25.73;13.10;;;13.40;90.80;;;;;;5126552;27;20043;-56
2021/05/16 08:45:33;;;;;;;20.58;11.50;;;13.00;92.80;;;;;;5130194;27;20043;-47
2021/05/16 08:48:00;;;;;;;17.85;7.55;;;12.50;94.20;;;;;;5129547;27;20051;-52
2021/05/16 08:50:27;;;;;;;8.88;4.50;;;11.80;95.30;;;;;;5130508;27;20043;-52
2021/05/16 08:52:57;;;;;;;7.72;2.90;;;11.10;96.20;;;;;;5128438;27;20046;-51
2021/05/16 08:55:23;;;;;;;4.95;2.60;;;10.80;96.50;;;;;;5125629;27;20043;-51
2021/05/16 08:57:52;;;;;;;5.72;1.92;;;10.50;97.00;;;;;;5125380;27;20100;-47
2021/05/16 09:00:25;;;;;;;4.80;1.90;;;10.40;97.10;;;;;;5123705;27;20088;-47
2021/05/16 09:03:05;;;;;;;5.53;1.98;;;10.30;97.10;;;;;;5123969;27;20495;-49
2021/05/16 09:05:51;;;;;;;5.63;2.50;;;10.30;97.40;;;;;;5114811;27;20054;-46
2021/05/16 09:08:22;;;;;;;4.75;2.00;;;10.40;98.20;;;;;;5112511;27;20491;-46
2021/05/16 09:10:58;;;;;;;7.57;3.03;;;10.50;98.00;;;;;;5130125;27;20524;-46
2021/05/16 09:13:35;;;;;;;9.30;4.05;;;10.60;98.10;;;;;;5129932;27;20053;-47
2021/05/16 09:16:17;;;;;;;8.70;5.18;;;10.80;98.30;;;;;;5129565;27;20043;-48
2021/05/16 09:18:53;;;;;;;8.93;5.65;;;10.90;98.30;;;;;;5105196;28;20678;-48
2021/05/16 09:21:27;;;;;;;11.30;6.28;;;11.10;99.10;;;;;;5118591;27;20035;-47
2021/05/16 09:24:02;;;;;;;26.88;22.70;;;11.20;98.30;;;;;;5116119;27;20075;-46
2021/05/16 09:26:36;;;;;;;17.17;13.02;;;11.40;98.90;;;;;;5124252;27;20084;-46
2021/05/16 09:29:30;;;;;;;24.75;20.35;;;11.50;98.60;;;;;;5129294;27;20054;-42
2021/05/16 09:32:00;;;;;;;22.10;16.58;;;11.70;98.90;;;;;;5132494;27;20043;-50
2021/05/16 09:34:28;;;;;;;14.77;10.60;;;11.90;98.70;;;;;;5134562;27;20054;-51
2021/05/16 09:36:57;;;;;;;18.60;12.25;;;12.10;98.80;;;;;;5110294;27;20076;-48
2021/05/16 09:39:32;;;;;;;15.98;9.43;;;12.40;98.50;;;;;;5118831;27;20039;-44
2021/05/16 09:42:08;;;;;;;15.45;9.07;;;12.70;97.70;;;;;;5099702;27;20062;-48
2021/05/16 09:44:46;;;;;;;13.55;9.80;;;13.60;97.50;;;;;;5116436;27;20048;-48
2021/05/16 09:47:14;;;;;;;12.10;8.18;;;14.60;97.30;;;;;;5106656;28;20096;-49
2021/05/16 09:50:06;;;;;;;9.82;4.50;;;15.30;94.50;;;;;;5109821;28;20062;-47
2021/05/16 09:52:36;;;;;;;9.77;5.10;;;15.40;92.30;;;;;;5117719;27;20047;-48
2021/05/16 09:55:09;;;;;;;5.30;3.65;;;15.50;93.70;;;;;;5126303;27;20140;-48
2021/05/16 09:57:40;;;;;;;5.40;2.70;;;15.40;92.10;;;;;;5128846;27;20051;-48
2021/05/16 10:00:15;;;;;;;4.88;2.30;;;15.40;91.50;;;;;;5128166;27;20051;-49
2021/05/16 10:02:42;;;;;;;2.63;1.50;;;15.30;91.30;;;;;;5120237;27;20124;-47
2021/05/16 10:05:15;;;;;;;2.75;1.50;;;15.20;91.10;;;;;;5134501;27;20054;-48
2021/05/16 10:07:42;;;;;;;4.55;2.70;;;15.10;88.00;;;;;;5122523;27;20044;-50
2021/05/16 10:10:12;;;;;;;7.05;4.47;;;15.40;91.60;;;;;;5125410;27;20040;-46
2021/05/16 10:12:39;;;;;;;5.28;2.88;;;15.80;91.60;;;;;;5125527;27;20048;-47
2021/05/16 10:15:23;;;;;;;5.10;2.47;;;16.30;90.30;;;;;;5122126;27;20082;-45
2021/05/16 10:17:55;;;;;;;5.03;3.58;;;16.60;91.80;;;;;;5124796;27;20043;-46
2021/05/16 10:20:30;;;;;;;11.48;8.65;;;16.30;91.30;;;;;;5107174;28;20120;-46
2021/05/16 10:22:58;;;;;;;13.60;10.30;;;15.70;86.80;;;;;;5096993;27;20130;-46
2021/05/16 10:25:44;;;;;;;13.20;7.78;;;15.00;87.10;;;;;;5121110;27;20411;-47
2021/05/16 10:28:16;;;;;;;5.68;3.33;;;14.90;90.10;;;;;;5119514;27;20444;-47
2021/05/16 10:31:06;;;;;;;5.90;3.05;;;14.50;90.00;;;;;;5124570;27;20063;-46
2021/05/16 10:33:34;;;;;;;3.40;1.98;;;14.10;89.50;;;;;;5129819;27;20593;-47
2021/05/16 10:36:00;;;;;;;7.32;4.47;;;13.90;89.10;;;;;;5129423;27;20062;-47
2021/05/16 10:38:44;;;;;;;8.38;3.83;;;13.60;91.20;;;;;;5104933;27;20456;-47
2021/05/16 10:41:17;;;;;;;7.40;3.83;;;13.40;92.50;;;;;;5085132;28;20487;-47
2021/05/16 10:43:44;;;;;;;7.78;2.80;;;13.00;93.40;;;;;;5130921;27;20055;-47
2021/05/16 10:46:39;;;;;;;6.32;2.83;;;12.70;93.50;;;;;;5108201;28;20044;-46
2021/05/16 10:49:25;;;;;;;5.22;2.30;;;12.10;94.70;;;;;;5122938;27;20134;-50
2021/05/16 10:51:53;;;;;;;5.68;2.45;;;11.70;94.70;;;;;;5126626;27;20512;-47
2021/05/16 10:54:30;;;;;;;6.95;2.20;;;11.40;94.80;;;;;;5126760;27;20051;-46
2021/05/16 10:57:09;;;;;;;7.18;2.50;;;11.30;95.10;;;;;;5126065;27;20426;-46
2021/05/16 10:59:39;;;;;;;8.73;5.43;;;11.30;96.20;;;;;;5128686;27;20063;-45
2021/05/16 11:02:05;;;;;;;15.65;10.45;;;11.40;96.20;;;;;;5135448;27;20110;-46
2021/05/16 11:04:53;;;;;;;6.07;3.63;;;11.60;96.00;;;;;;5121552;28;20055;-44
2021/05/16 11:07:36;;;;;;;8.07;4.60;;;11.90;96.10;;;;;;5124328;27;20536;-44
2021/05/16 11:10:29;;;;;;;6.45;3.60;;;12.40;96.20;;;;;;5124120;28;20049;-46
2021/05/16 11:13:12;;;;;;;10.88;5.28;;;12.80;95.40;;;;;;5124268;28;20517;-47
2021/05/16 11:16:09;;;;;;;5.80;3.42;;;13.20;94.10;;;;;;5120194;28;20066;-45
2021/05/16 11:18:36;;;;;;;12.50;6.65;;;13.70;94.50;;;;;;5122620;27;20035;-47
2021/05/16 11:21:05;;;;;;;9.02;3.38;;;13.90;94.30;;;;;;5113282;28;20067;-47
2021/05/16 11:23:44;;;;;;;6.25;2.67;;;13.90;93.50;;;;;;5116916;27;20104;-47
2021/05/16 11:26:16;;;;;;;8.73;2.72;;;13.70;93.10;;;;;;5119099;28;20145;-46
2021/05/16 11:28:54;;;;;;;5.85;2.15;;;13.60;93.70;;;;;;5119992;28;20050;-47
2021/05/16 11:31:24;;;;;;;6.60;1.90;;;13.60;93.80;;;;;;5106993;28;20050;-48
2021/05/16 11:33:52;;;;;;;5.22;2.17;;;13.30;92.90;;;;;;5116536;28;20814;-48
2021/05/16 11:36:21;;;;;;;8.23;1.67;;;13.10;92.90;;;;;;5121703;27;20785;-49
2021/05/16 11:38:49;;;;;;;6.82;1.90;;;13.00;92.80;;;;;;5105158;27;20048;-48
2021/05/16 11:41:29;;;;;;;5.70;1.95;;;12.80;92.10;;;;;;5120403;28;20047;-45
2021/05/16 11:43:57;;;;;;;5.50;1.80;;;12.70;93.40;;;;;;5120380;27;20046;-45
2021/05/16 11:46:43;;;;;;;7.07;2.22;;;12.70;93.00;;;;;;5104671;27;20075;-46
2021/05/16 11:49:11;;;;;;;6.90;2.40;;;12.60;92.70;;;;;;5120073;27;20110;-47
2021/05/16 11:51:37;;;;;;;5.78;2.25;;;12.70;93.20;;;;;;5126899;27;20046;-46
2021/05/16 11:54:10;;;;;;;4.32;2.40;;;12.80;93.60;;;;;;5113252;28;20162;-47
2021/05/16 11:56:47;;;;;;;7.32;2.63;;;13.00;93.50;;;;;;5119479;28;20166;-47
2021/05/16 11:59:13;;;;;;;8.23;2.67;;;13.00;93.30;;;;;;5111905;28;20027;-46
2021/05/16 12:01:46;;;;;;;6.60;2.80;;;13.20;93.30;;;;;;5122690;28;20184;-46
2021/05/16 12:04:17;;;;;;;6.40;2.92;;;13.30;92.60;;;;;;5097754;28;20107;-47
2021/05/16 12:06:54;;;;;;;7.35;3.00;;;13.70;92.60;;;;;;5111900;27;20090;-47
2021/05/16 12:09:25;;;;;;;8.52;2.28;;;14.50;91.90;;;;;;5110664;27;20536;-46
2021/05/16 12:11:55;;;;;;;7.03;2.63;;;14.90;90.80;;;;;;5114365;27;20043;-48
2021/05/16 12:14:23;;;;;;;11.20;3.42;;;15.20;90.60;;;;;;5103858;27;20056;-48
2021/05/16 12:17:00;;;;;;;11.00;5.35;;;14.90;89.10;;;;;;5115167;27;20116;-47
2021/05/16 12:19:35;;;;;;;15.10;8.40;;;14.70;90.80;;;;;;5116428;27;20051;-46
2021/05/16 12:22:11;;;;;;;7.85;4.18;;;15.50;91.00;;;;;;5078789;28;20052;-50
2021/05/16 12:24:48;;;;;;;8.30;3.67;;;15.70;88.40;;;;;;5107346;27;20130;-47
2021/05/16 12:27:18;;;;;;;6.22;2.30;;;15.60;90.50;;;;;;5110052;27;20053;-47
2021/05/16 12:29:49;;;;;;;5.22;1.90;;;15.20;89.70;;;;;;5113364;27;20051;-48
2021/05/16 12:32:27;;;;;;;4.93;1.52;;;14.70;89.60;;;;;;5114891;27;20066;-48
2021/05/16 12:34:54;;;;;;;7.32;1.92;;;14.30;89.70;;;;;;5082308;27;20144;-47
2021/05/16 12:37:25;;;;;;;5.25;1.60;;;14.00;90.90;;;;;;5109107;27;20048;-48
2021/05/16 12:39:53;;;;;;;6.90;3.03;;;13.70;91.40;;;;;;5102856;28;20197;-50
2021/05/16 12:42:33;;;;;;;5.28;2.20;;;13.50;92.20;;;;;;5118341;27;20052;-47
2021/05/16 12:45:22;;;;;;;8.23;2.53;;;13.20;92.40;;;;;;5105339;27;20051;-46